sensor_id;sensor_type;location;lat;lon;timestamp;pressure;altitude;pressure_sealevel;temperature;humidity
35888;BME280;21990;42.540;23.496;2023-04-26T00:00:41;92585.59;;;9.85;96.43
35888;BME280;21990;42.540;23.496;2023-04-26T00:03:06;92585.03;;;9.86;95.75
35888;BME280;21990;42.540;23.496;2023-04-26T00:05:32;92585.03;;;9.86;95.12
35888;BME280;21990;42.540;23.496;2023-04-26T00:07:59;92577.03;;;9.70;95.17
35888;BME280;21990;42.540;23.496;2023-04-26T00:10:24;92575.34;;;9.67;94.80
35888;BME280;21990;42.540;23.496;2023-04-26T00:12:49;92570.25;;;9.65;94.46
35888;BME280;21990;42.540;23.496;2023-04-26T00:15:15;92577.34;;;9.59;93.97
35888;BME280;21990;42.540;23.496;2023-04-26T00:17:41;92560.06;;;9.54;94.00
35888;BME280;21990;42.540;23.496;2023-04-26T00:20:07;92562.53;;;9.58;93.06
35888;BME280;21990;42.540;23.496;2023-04-26T00:22:34;92562.69;;;9.52;92.33
35888;BME280;21990;42.540;23.496;2023-04-26T00:25:00;92565.31;;;9.30;92.99
35888;BME280;21990;42.540;23.496;2023-04-26T00:27:26;92561.16;;;9.31;92.29
35888;BME280;21990;42.540;23.496;2023-04-26T00:29:51;92558.59;;;9.33;92.04
35888;BME280;21990;42.540;23.496;2023-04-26T00:32:16;92564.06;;;9.18;92.52
35888;BME280;21990;42.540;23.496;2023-04-26T00:34:42;92562.75;;;9.19;92.28
35888;BME280;21990;42.540;23.496;2023-04-26T00:37:07;92548.38;;;9.01;92.92
35888;BME280;21990;42.540;23.496;2023-04-26T00:39:32;92550.41;;;9.01;92.86
35888;BME280;21990;42.540;23.496;2023-04-26T00:41:58;92556.66;;;9.07;93.02
35888;BME280;21990;42.540;23.496;2023-04-26T00:44:23;92553.72;;;9.13;93.09
35888;BME280;21990;42.540;23.496;2023-04-26T00:46:49;92551.44;;;9.11;93.07
35888;BME280;21990;42.540;23.496;2023-04-26T00:49:16;92555.56;;;9.10;92.77
35888;BME280;21990;42.540;23.496;2023-04-26T00:51:43;92550.50;;;9.09;92.41
35888;BME280;21990;42.540;23.496;2023-04-26T00:54:09;92542.78;;;8.88;93.26
35888;BME280;21990;42.540;23.496;2023-04-26T00:56:34;92556.72;;;8.94;93.72
35888;BME280;21990;42.540;23.496;2023-04-26T00:59:01;92553.16;;;8.93;94.05
35888;BME280;21990;42.540;23.496;2023-04-26T01:01:26;92550.19;;;8.99;93.74
35888;BME280;21990;42.540;23.496;2023-04-26T01:03:52;92549.47;;;8.98;94.01
35888;BME280;21990;42.540;23.496;2023-04-26T01:06:17;92553.56;;;8.97;94.37
35888;BME280;21990;42.540;23.496;2023-04-26T01:08:43;92553.00;;;8.99;94.67
35888;BME280;21990;42.540;23.496;2023-04-26T01:11:08;92556.16;;;8.95;94.30
35888;BME280;21990;42.540;23.496;2023-04-26T01:13:34;92558.78;;;8.93;94.61
35888;BME280;21990;42.540;23.496;2023-04-26T01:16:01;92558.00;;;8.93;94.78
35888;BME280;21990;42.540;23.496;2023-04-26T01:18:26;92566.78;;;8.89;94.53
35888;BME280;21990;42.540;23.496;2023-04-26T01:20:52;92561.44;;;8.78;94.75
35888;BME280;21990;42.540;23.496;2023-04-26T01:23:17;92556.56;;;8.79;94.48
35888;BME280;21990;42.540;23.496;2023-04-26T01:25:42;92546.41;;;8.76;94.38
35888;BME280;21990;42.540;23.496;2023-04-26T01:28:08;92546.97;;;8.74;94.77
35888;BME280;21990;42.540;23.496;2023-04-26T01:30:33;92552.63;;;8.61;95.05
35888;BME280;21990;42.540;23.496;2023-04-26T01:32:59;92550.88;;;8.71;95.50
35888;BME280;21990;42.540;23.496;2023-04-26T01:35:25;92538.13;;;8.70;95.39
35888;BME280;21990;42.540;23.496;2023-04-26T01:37:50;92547.84;;;8.69;95.57
35888;BME280;21990;42.540;23.496;2023-04-26T01:40:15;92551.19;;;8.68;95.37
35888;BME280;21990;42.540;23.496;2023-04-26T01:42:41;92554.41;;;8.72;94.88
35888;BME280;21990;42.540;23.496;2023-04-26T01:45:06;92558.72;;;8.52;93.18
35888;BME280;21990;42.540;23.496;2023-04-26T01:47:32;92554.53;;;8.19;93.34
35888;BME280;21990;42.540;23.496;2023-04-26T01:49:57;92563.09;;;8.00;94.07
35888;BME280;21990;42.540;23.496;2023-04-26T01:52:22;92556.47;;;8.11;94.83
35888;BME280;21990;42.540;23.496;2023-04-26T01:54:48;92556.66;;;8.26;94.77
35888;BME280;21990;42.540;23.496;2023-04-26T01:57:13;92549.47;;;8.31;94.34
35888;BME280;21990;42.540;23.496;2023-04-26T01:59:38;92549.47;;;8.31;95.29
35888;BME280;21990;42.540;23.496;2023-04-26T02:02:04;92537.72;;;8.32;95.29
35888;BME280;21990;42.540;23.496;2023-04-26T02:04:29;92538.03;;;8.16;94.14
35888;BME280;21990;42.540;23.496;2023-04-26T02:06:55;92537.63;;;7.85;94.37
35888;BME280;21990;42.540;23.496;2023-04-26T02:09:21;92535.59;;;7.86;95.96
35888;BME280;21990;42.540;23.496;2023-04-26T02:11:46;92535.22;;;8.02;96.26
35888;BME280;21990;42.540;23.496;2023-04-26T02:14:11;92537.59;;;8.11;95.97
35888;BME280;21990;42.540;23.496;2023-04-26T02:16:38;92538.34;;;8.12;95.23
35888;BME280;21990;42.540;23.496;2023-04-26T02:19:03;92536.09;;;8.10;95.18
35888;BME280;21990;42.540;23.496;2023-04-26T02:21:29;92540.41;;;8.11;95.37
35888;BME280;21990;42.540;23.496;2023-04-26T02:23:55;92546.44;;;8.16;95.18
35888;BME280;21990;42.540;23.496;2023-04-26T02:26:21;92559.28;;;8.11;94.69
35888;BME280;21990;42.540;23.496;2023-04-26T02:28:46;92558.22;;;8.01;94.89
35888;BME280;21990;42.540;23.496;2023-04-26T02:31:12;92558.53;;;8.10;95.02
35888;BME280;21990;42.540;23.496;2023-04-26T02:33:37;92560.03;;;8.11;94.66
35888;BME280;21990;42.540;23.496;2023-04-26T02:36:03;92561.03;;;8.01;94.20
35888;BME280;21990;42.540;23.496;2023-04-26T02:38:29;92565.66;;;7.72;93.40
35888;BME280;21990;42.540;23.496;2023-04-26T02:40:58;92563.50;;;7.52;93.82
35888;BME280;21990;42.540;23.496;2023-04-26T02:43:24;92559.06;;;7.43;94.45
35888;BME280;21990;42.540;23.496;2023-04-26T02:45:49;92551.34;;;7.62;95.72
35888;BME280;21990;42.540;23.496;2023-04-26T02:48:15;92548.53;;;7.76;95.45
35888;BME280;21990;42.540;23.496;2023-04-26T02:50:40;92529.84;;;7.78;95.44
35888;BME280;21990;42.540;23.496;2023-04-26T02:53:05;92517.59;;;7.81;95.75
35888;BME280;21990;42.540;23.496;2023-04-26T02:55:31;92519.16;;;7.90;95.71
35888;BME280;21990;42.540;23.496;2023-04-26T02:57:57;92523.72;;;7.93;95.89
35888;BME280;21990;42.540;23.496;2023-04-26T03:00:22;92527.81;;;7.92;95.75
35888;BME280;21990;42.540;23.496;2023-04-26T03:02:48;92524.38;;;7.86;95.29
35888;BME280;21990;42.540;23.496;2023-04-26T03:05:13;92532.25;;;7.61;95.17
35888;BME280;21990;42.540;23.496;2023-04-26T03:07:39;92529.88;;;7.39;94.68
35888;BME280;21990;42.540;23.496;2023-04-26T03:10:04;92521.75;;;7.22;94.44
35888;BME280;21990;42.540;23.496;2023-04-26T03:12:30;92509.03;;;7.08;95.08
35888;BME280;21990;42.540;23.496;2023-04-26T03:14:55;92519.84;;;7.30;95.37
35888;BME280;21990;42.540;23.496;2023-04-26T03:17:21;92514.13;;;7.49;95.42
35888;BME280;21990;42.540;23.496;2023-04-26T03:19:46;92519.00;;;7.61;95.46
35888;BME280;21990;42.540;23.496;2023-04-26T03:22:12;92512.19;;;7.70;95.32
35888;BME280;21990;42.540;23.496;2023-04-26T03:24:41;92518.97;;;7.75;95.38
35888;BME280;21990;42.540;23.496;2023-04-26T03:27:09;92521.66;;;7.80;95.13
35888;BME280;21990;42.540;23.496;2023-04-26T03:29:35;92519.63;;;7.81;95.45
35888;BME280;21990;42.540;23.496;2023-04-26T03:32:00;92515.97;;;7.73;95.26
35888;BME280;21990;42.540;23.496;2023-04-26T03:34:26;92514.78;;;7.68;94.01
35888;BME280;21990;42.540;23.496;2023-04-26T03:36:51;92512.63;;;7.61;93.90
35888;BME280;21990;42.540;23.496;2023-04-26T03:39:17;92513.16;;;7.59;95.11
35888;BME280;21990;42.540;23.496;2023-04-26T03:41:42;92504.09;;;7.67;95.37
35888;BME280;21990;42.540;23.496;2023-04-26T03:44:07;92506.47;;;7.76;96.16
35888;BME280;21990;42.540;23.496;2023-04-26T03:46:33;92511.41;;;7.83;96.23
35888;BME280;21990;42.540;23.496;2023-04-26T03:48:58;92521.25;;;7.89;96.70
35888;BME280;21990;42.540;23.496;2023-04-26T03:51:23;92525.53;;;7.90;96.36
35888;BME280;21990;42.540;23.496;2023-04-26T03:53:49;92524.56;;;7.88;96.48
35888;BME280;21990;42.540;23.496;2023-04-26T03:56:15;92533.09;;;7.82;96.19
35888;BME280;21990;42.540;23.496;2023-04-26T03:58:41;92529.66;;;7.89;96.87
35888;BME280;21990;42.540;23.496;2023-04-26T04:01:06;92534.81;;;7.98;96.95
35888;BME280;21990;42.540;23.496;2023-04-26T04:03:32;92538.38;;;7.99;96.23
35888;BME280;21990;42.540;23.496;2023-04-26T04:05:58;92532.22;;;8.00;96.13
35888;BME280;21990;42.540;23.496;2023-04-26T04:08:23;92538.16;;;7.71;95.45
35888;BME280;21990;42.540;23.496;2023-04-26T04:10:48;92542.81;;;7.42;96.38
35888;BME280;21990;42.540;23.496;2023-04-26T04:13:14;92535.03;;;7.35;97.38
35888;BME280;21990;42.540;23.496;2023-04-26T04:15:39;92540.53;;;7.27;98.50
35888;BME280;21990;42.540;23.496;2023-04-26T04:18:04;92552.13;;;7.18;99.21
35888;BME280;21990;42.540;23.496;2023-04-26T04:20:30;92555.63;;;7.37;99.15
35888;BME280;21990;42.540;23.496;2023-04-26T04:22:55;92549.25;;;7.37;99.48
35888;BME280;21990;42.540;23.496;2023-04-26T04:25:22;92561.97;;;7.51;99.65
35888;BME280;21990;42.540;23.496;2023-04-26T04:27:48;92553.59;;;7.64;99.44
35888;BME280;21990;42.540;23.496;2023-04-26T04:30:14;92555.44;;;7.61;98.56
35888;BME280;21990;42.540;23.496;2023-04-26T04:32:40;92560.16;;;7.67;98.54
35888;BME280;21990;42.540;23.496;2023-04-26T04:35:08;92559.75;;;7.62;98.60
35888;BME280;21990;42.540;23.496;2023-04-26T04:37:33;92559.53;;;7.60;98.77
35888;BME280;21990;42.540;23.496;2023-04-26T04:39:59;92569.22;;;7.59;98.91
35888;BME280;21990;42.540;23.496;2023-04-26T04:42:24;92574.59;;;7.71;99.56
35888;BME280;21990;42.540;23.496;2023-04-26T04:44:51;92564.25;;;7.79;99.59
35888;BME280;21990;42.540;23.496;2023-04-26T04:47:17;92569.53;;;7.82;99.07
35888;BME280;21990;42.540;23.496;2023-04-26T04:49:42;92573.97;;;7.64;98.83
35888;BME280;21990;42.540;23.496;2023-04-26T04:52:08;92571.06;;;7.70;99.44
35888;BME280;21990;42.540;23.496;2023-04-26T04:54:33;92572.03;;;7.73;99.23
35888;BME280;21990;42.540;23.496;2023-04-26T04:56:58;92566.53;;;7.54;99.03
35888;BME280;21990;42.540;23.496;2023-04-26T04:59:25;92566.97;;;7.58;99.42
35888;BME280;21990;42.540;23.496;2023-04-26T05:01:51;92573.09;;;7.56;100.00
35888;BME280;21990;42.540;23.496;2023-04-26T05:04:16;92568.56;;;7.67;100.00
35888;BME280;21990;42.540;23.496;2023-04-26T05:06:41;92576.13;;;7.72;100.00
35888;BME280;21990;42.540;23.496;2023-04-26T05:09:07;92567.16;;;7.86;99.84
35888;BME280;21990;42.540;23.496;2023-04-26T05:11:33;92566.00;;;7.95;99.58
35888;BME280;21990;42.540;23.496;2023-04-26T05:13:58;92569.03;;;7.97;98.70
35888;BME280;21990;42.540;23.496;2023-04-26T05:16:24;92561.47;;;8.05;99.18
35888;BME280;21990;42.540;23.496;2023-04-26T05:18:50;92573.03;;;8.01;99.13
35888;BME280;21990;42.540;23.496;2023-04-26T05:21:15;92570.75;;;8.13;99.22
35888;BME280;21990;42.540;23.496;2023-04-26T05:23:41;92584.44;;;8.03;98.58
35888;BME280;21990;42.540;23.496;2023-04-26T05:26:06;92579.16;;;7.87;99.59
35888;BME280;21990;42.540;23.496;2023-04-26T05:28:32;92581.19;;;7.86;99.85
35888;BME280;21990;42.540;23.496;2023-04-26T05:30:58;92581.94;;;7.87;100.00
35888;BME280;21990;42.540;23.496;2023-04-26T05:33:24;92580.56;;;7.93;100.00
35888;BME280;21990;42.540;23.496;2023-04-26T05:35:49;92574.72;;;8.04;100.00
35888;BME280;21990;42.540;23.496;2023-04-26T05:38:16;92576.66;;;8.23;100.00
35888;BME280;21990;42.540;23.496;2023-04-26T05:40:41;92578.28;;;8.31;99.97
35888;BME280;21990;42.540;23.496;2023-04-26T05:43:07;92576.53;;;8.41;100.00
35888;BME280;21990;42.540;23.496;2023-04-26T05:45:32;92574.66;;;8.57;99.79
35888;BME280;21990;42.540;23.496;2023-04-26T05:47:58;92578.63;;;8.75;100.00
35888;BME280;21990;42.540;23.496;2023-04-26T05:50:23;92581.19;;;9.06;100.00
35888;BME280;21990;42.540;23.496;2023-04-26T05:52:48;92588.09;;;9.26;100.00
35888;BME280;21990;42.540;23.496;2023-04-26T05:55:14;92579.75;;;9.54;100.00
35888;BME280;21990;42.540;23.496;2023-04-26T05:57:39;92579.66;;;9.68;99.94
35888;BME280;21990;42.540;23.496;2023-04-26T06:00:05;92576.38;;;9.84;98.88
35888;BME280;21990;42.540;23.496;2023-04-26T06:02:30;92569.91;;;9.97;98.22
35888;BME280;21990;42.540;23.496;2023-04-26T06:04:56;92572.22;;;10.06;95.89
35888;BME280;21990;42.540;23.496;2023-04-26T06:07:21;92564.84;;;10.24;97.58
35888;BME280;21990;42.540;23.496;2023-04-26T06:09:46;92564.16;;;10.82;100.00
35888;BME280;21990;42.540;23.496;2023-04-26T06:12:12;92566.88;;;11.18;97.39
35888;BME280;21990;42.540;23.496;2023-04-26T06:14:37;92559.19;;;11.33;92.70
35888;BME280;21990;42.540;23.496;2023-04-26T06:17:03;92564.28;;;11.42;91.99
35888;BME280;21990;42.540;23.496;2023-04-26T06:19:28;92563.72;;;11.52;93.22
35888;BME280;21990;42.540;23.496;2023-04-26T06:21:54;92558.47;;;11.63;92.75
35888;BME280;21990;42.540;23.496;2023-04-26T06:24:21;92561.31;;;11.78;92.03
35888;BME280;21990;42.540;23.496;2023-04-26T06:26:47;92563.19;;;11.83;89.33
35888;BME280;21990;42.540;23.496;2023-04-26T06:29:12;92561.09;;;11.99;91.48
35888;BME280;21990;42.540;23.496;2023-04-26T06:31:38;92560.50;;;12.23;91.62
35888;BME280;21990;42.540;23.496;2023-04-26T06:34:03;92557.59;;;12.46;85.57
35888;BME280;21990;42.540;23.496;2023-04-26T06:36:28;92549.41;;;12.73;88.71
35888;BME280;21990;42.540;23.496;2023-04-26T06:38:54;92549.06;;;13.41;85.66
35888;BME280;21990;42.540;23.496;2023-04-26T06:41:20;92547.41;;;13.63;78.15
35888;BME280;21990;42.540;23.496;2023-04-26T06:43:46;92554.22;;;13.85;78.32
35888;BME280;21990;42.540;23.496;2023-04-26T06:46:12;92557.28;;;14.21;80.57
35888;BME280;21990;42.540;23.496;2023-04-26T06:48:37;92553.38;;;14.34;75.20
35888;BME280;21990;42.540;23.496;2023-04-26T06:51:06;92550.84;;;14.20;73.44
35888;BME280;21990;42.540;23.496;2023-04-26T06:53:32;92558.31;;;13.91;72.83
35888;BME280;21990;42.540;23.496;2023-04-26T06:55:58;92554.84;;;14.00;74.69
35888;BME280;21990;42.540;23.496;2023-04-26T06:58:23;92553.16;;;13.97;75.30
35888;BME280;21990;42.540;23.496;2023-04-26T07:00:48;92551.81;;;13.81;73.66
35888;BME280;21990;42.540;23.496;2023-04-26T07:03:14;92550.56;;;13.67;74.29
35888;BME280;21990;42.540;23.496;2023-04-26T07:05:40;92553.56;;;13.44;73.19
35888;BME280;21990;42.540;23.496;2023-04-26T07:08:07;92553.53;;;13.19;73.77
35888;BME280;21990;42.540;23.496;2023-04-26T07:10:32;92556.50;;;12.89;74.35
35888;BME280;21990;42.540;23.496;2023-04-26T07:12:57;92559.75;;;12.78;74.45
35888;BME280;21990;42.540;23.496;2023-04-26T07:15:23;92576.00;;;12.70;75.33
35888;BME280;21990;42.540;23.496;2023-04-26T07:17:48;92568.66;;;12.67;74.97
35888;BME280;21990;42.540;23.496;2023-04-26T07:20:14;92565.88;;;12.52;74.62
35888;BME280;21990;42.540;23.496;2023-04-26T07:22:43;92580.13;;;12.69;76.05
35888;BME280;21990;42.540;23.496;2023-04-26T07:25:09;92577.34;;;12.61;74.02
35888;BME280;21990;42.540;23.496;2023-04-26T07:27:34;92582.25;;;12.53;73.95
35888;BME280;21990;42.540;23.496;2023-04-26T07:30:00;92577.19;;;12.52;74.55
35888;BME280;21990;42.540;23.496;2023-04-26T07:32:25;92582.06;;;12.59;75.73
35888;BME280;21990;42.540;23.496;2023-04-26T07:34:50;92580.72;;;12.67;73.38
35888;BME280;21990;42.540;23.496;2023-04-26T07:37:16;92574.75;;;12.96;72.15
35888;BME280;21990;42.540;23.496;2023-04-26T07:39:41;92572.25;;;13.15;69.56
35888;BME280;21990;42.540;23.496;2023-04-26T07:42:06;92579.13;;;13.29;66.58
35888;BME280;21990;42.540;23.496;2023-04-26T07:44:32;92582.44;;;13.43;67.75
35888;BME280;21990;42.540;23.496;2023-04-26T07:46:57;92589.66;;;13.36;62.10
35888;BME280;21990;42.540;23.496;2023-04-26T07:49:22;92587.53;;;13.44;64.75
35888;BME280;21990;42.540;23.496;2023-04-26T07:51:48;92590.31;;;13.52;63.21
35888;BME280;21990;42.540;23.496;2023-04-26T07:54:15;92582.38;;;13.58;65.91
35888;BME280;21990;42.540;23.496;2023-04-26T07:56:41;92583.28;;;13.60;63.06
35888;BME280;21990;42.540;23.496;2023-04-26T07:59:06;92584.03;;;13.61;62.32
35888;BME280;21990;42.540;23.496;2023-04-26T08:01:32;92583.34;;;13.53;62.84
35888;BME280;21990;42.540;23.496;2023-04-26T08:03:58;92582.03;;;13.46;62.43
35888;BME280;21990;42.540;23.496;2023-04-26T08:06:23;92584.00;;;13.36;63.50
35888;BME280;21990;42.540;23.496;2023-04-26T08:08:49;92581.78;;;13.27;62.78
35888;BME280;21990;42.540;23.496;2023-04-26T08:11:15;92581.09;;;13.19;64.13
35888;BME280;21990;42.540;23.496;2023-04-26T08:13:40;92581.84;;;13.12;62.60
35888;BME280;21990;42.540;23.496;2023-04-26T08:16:08;92579.78;;;13.12;63.78
35888;BME280;21990;42.540;23.496;2023-04-26T08:18:33;92584.28;;;13.15;64.73
35888;BME280;21990;42.540;23.496;2023-04-26T08:20:59;92575.63;;;13.13;62.58
35888;BME280;21990;42.540;23.496;2023-04-26T08:23:24;92582.84;;;12.99;64.28
35888;BME280;21990;42.540;23.496;2023-04-26T08:25:49;92579.88;;;12.90;63.91
35888;BME280;21990;42.540;23.496;2023-04-26T08:28:15;92586.66;;;12.87;64.09
35888;BME280;21990;42.540;23.496;2023-04-26T08:30:40;92592.88;;;12.85;63.87
35888;BME280;21990;42.540;23.496;2023-04-26T08:33:06;92587.28;;;12.70;63.91
35888;BME280;21990;42.540;23.496;2023-04-26T08:35:31;92597.84;;;12.69;64.59
35888;BME280;21990;42.540;23.496;2023-04-26T08:37:56;92593.00;;;12.55;65.25
35888;BME280;21990;42.540;23.496;2023-04-26T08:40:22;92600.19;;;12.48;65.19
35888;BME280;21990;42.540;23.496;2023-04-26T08:42:48;92595.66;;;12.45;64.92
35888;BME280;21990;42.540;23.496;2023-04-26T08:45:14;92598.66;;;12.47;65.50
35888;BME280;21990;42.540;23.496;2023-04-26T08:47:44;92603.19;;;12.50;65.40
35888;BME280;21990;42.540;23.496;2023-04-26T08:50:12;92606.59;;;12.49;66.07
35888;BME280;21990;42.540;23.496;2023-04-26T08:52:39;92595.09;;;12.47;64.62
35888;BME280;21990;42.540;23.496;2023-04-26T08:55:05;92607.91;;;12.48;64.50
35888;BME280;21990;42.540;23.496;2023-04-26T08:57:31;92609.63;;;12.35;65.50
35888;BME280;21990;42.540;23.496;2023-04-26T09:00:03;92608.50;;;12.31;66.11
35888;BME280;21990;42.540;23.496;2023-04-26T09:02:43;92613.59;;;12.32;65.36
35888;BME280;21990;42.540;23.496;2023-04-26T09:05:10;92610.34;;;12.44;66.69
35888;BME280;21990;42.540;23.496;2023-04-26T09:07:45;92608.81;;;12.50;67.02
35888;BME280;21990;42.540;23.496;2023-04-26T09:10:12;92610.69;;;12.63;66.02
35888;BME280;21990;42.540;23.496;2023-04-26T09:12:37;92606.13;;;12.75;65.86
35888;BME280;21990;42.540;23.496;2023-04-26T09:15:04;92613.44;;;12.85;65.99
35888;BME280;21990;42.540;23.496;2023-04-26T09:17:32;92618.66;;;12.97;63.13
35888;BME280;21990;42.540;23.496;2023-04-26T09:19:58;92618.47;;;13.10;64.13
35888;BME280;21990;42.540;23.496;2023-04-26T09:22:33;92605.78;;;13.18;63.65
35888;BME280;21990;42.540;23.496;2023-04-26T09:25:03;92605.75;;;13.26;62.53
35888;BME280;21990;42.540;23.496;2023-04-26T09:27:32;92604.19;;;13.32;61.31
35888;BME280;21990;42.540;23.496;2023-04-26T09:30:02;92610.03;;;13.35;60.91
35888;BME280;21990;42.540;23.496;2023-04-26T09:33:15;92607.19;;;13.42;62.78
35888;BME280;21990;42.540;23.496;2023-04-26T09:35:24;92609.75;;;13.48;62.00
35888;BME280;21990;42.540;23.496;2023-04-26T09:37:53;92614.88;;;13.49;60.81
35888;BME280;21990;42.540;23.496;2023-04-26T09:40:19;92613.13;;;13.54;60.90
35888;BME280;21990;42.540;23.496;2023-04-26T09:42:45;92606.13;;;13.55;61.13
35888;BME280;21990;42.540;23.496;2023-04-26T09:45:11;92609.38;;;13.51;60.89
35888;BME280;21990;42.540;23.496;2023-04-26T09:47:36;92611.22;;;13.56;60.36
35888;BME280;21990;42.540;23.496;2023-04-26T09:50:01;92612.84;;;13.67;59.75
35888;BME280;21990;42.540;23.496;2023-04-26T09:52:28;92600.38;;;13.70;60.16
35888;BME280;21990;42.540;23.496;2023-04-26T09:54:53;92603.03;;;13.68;60.50
35888;BME280;21990;42.540;23.496;2023-04-26T09:57:19;92605.25;;;13.77;60.62
35888;BME280;21990;42.540;23.496;2023-04-26T09:59:49;92595.59;;;13.80;60.59
35888;BME280;21990;42.540;23.496;2023-04-26T10:02:23;92601.19;;;13.88;62.53
35888;BME280;21990;42.540;23.496;2023-04-26T10:04:50;92592.88;;;13.90;61.89
35888;BME280;21990;42.540;23.496;2023-04-26T10:07:17;92594.09;;;14.04;62.50
35888;BME280;21990;42.540;23.496;2023-04-26T10:09:42;92590.09;;;14.24;61.27
35888;BME280;21990;42.540;23.496;2023-04-26T10:12:09;92597.59;;;14.37;59.21
35888;BME280;21990;42.540;23.496;2023-04-26T10:14:34;92593.88;;;14.26;58.41
35888;BME280;21990;42.540;23.496;2023-04-26T10:17:01;92596.19;;;14.45;60.65
35888;BME280;21990;42.540;23.496;2023-04-26T10:19:27;92589.69;;;14.52;59.22
35888;BME280;21990;42.540;23.496;2023-04-26T10:21:53;92592.44;;;14.60;59.05
35888;BME280;21990;42.540;23.496;2023-04-26T10:24:22;92588.69;;;14.57;57.10
35888;BME280;21990;42.540;23.496;2023-04-26T10:29:14;92585.03;;;14.64;59.05
35888;BME280;21990;42.540;23.496;2023-04-26T10:34:24;92577.94;;;14.56;58.49
35888;BME280;21990;42.540;23.496;2023-04-26T10:39:33;92589.59;;;14.60;57.24
35888;BME280;21990;42.540;23.496;2023-04-26T10:44:47;92583.84;;;14.67;57.41
35888;BME280;21990;42.540;23.496;2023-04-26T10:47:22;92583.94;;;14.77;59.04
35888;BME280;21990;42.540;23.496;2023-04-26T10:49:48;92580.69;;;14.63;57.72
35888;BME280;21990;42.540;23.496;2023-04-26T10:52:15;92581.03;;;14.50;56.44
35888;BME280;21990;42.540;23.496;2023-04-26T10:54:48;92589.31;;;14.31;56.79
35888;BME280;21990;42.540;23.496;2023-04-26T10:57:13;92598.69;;;14.16;59.61
35888;BME280;21990;42.540;23.496;2023-04-26T10:59:39;92604.09;;;13.80;60.75
35888;BME280;21990;42.540;23.496;2023-04-26T11:02:08;92594.75;;;13.62;60.24
35888;BME280;21990;42.540;23.496;2023-04-26T11:04:49;92595.00;;;13.57;64.25
35888;BME280;21990;42.540;23.496;2023-04-26T11:07:15;92601.22;;;13.55;65.81
35888;BME280;21990;42.540;23.496;2023-04-26T11:09:47;92599.06;;;13.39;62.50
35888;BME280;21990;42.540;23.496;2023-04-26T11:12:13;92600.88;;;13.19;63.62
35888;BME280;21990;42.540;23.496;2023-04-26T11:14:43;92594.84;;;13.07;63.65
35888;BME280;21990;42.540;23.496;2023-04-26T11:17:09;92597.88;;;13.09;64.96
35888;BME280;21990;42.540;23.496;2023-04-26T11:19:35;92599.19;;;13.16;64.00
35888;BME280;21990;42.540;23.496;2023-04-26T11:22:01;92599.38;;;13.18;64.54
35888;BME280;21990;42.540;23.496;2023-04-26T11:24:27;92601.78;;;13.29;65.71
35888;BME280;21990;42.540;23.496;2023-04-26T11:26:52;92606.28;;;13.32;64.75
35888;BME280;21990;42.540;23.496;2023-04-26T11:29:18;92605.13;;;13.35;63.59
35888;BME280;21990;42.540;23.496;2023-04-26T11:31:54;92603.59;;;13.42;63.96
35888;BME280;21990;42.540;23.496;2023-04-26T11:34:20;92599.34;;;13.58;65.19
35888;BME280;21990;42.540;23.496;2023-04-26T11:36:46;92602.50;;;13.62;64.68
35888;BME280;21990;42.540;23.496;2023-04-26T11:39:12;92605.78;;;13.51;60.58
35888;BME280;21990;42.540;23.496;2023-04-26T11:41:37;92600.66;;;13.57;62.74
35888;BME280;21990;42.540;23.496;2023-04-26T11:44:03;92610.81;;;13.60;62.06
35888;BME280;21990;42.540;23.496;2023-04-26T11:46:28;92613.13;;;13.54;61.05
35888;BME280;21990;42.540;23.496;2023-04-26T11:48:54;92608.59;;;13.51;59.99
35888;BME280;21990;42.540;23.496;2023-04-26T11:51:20;92598.09;;;13.44;60.34
35888;BME280;21990;42.540;23.496;2023-04-26T11:53:45;92601.38;;;13.32;60.14
35888;BME280;21990;42.540;23.496;2023-04-26T11:56:14;92591.25;;;13.22;60.94
35888;BME280;21990;42.540;23.496;2023-04-26T11:58:47;92579.00;;;13.19;62.57
35888;BME280;21990;42.540;23.496;2023-04-26T12:01:23;92593.69;;;13.25;61.88
35888;BME280;21990;42.540;23.496;2023-04-26T12:03:49;92584.03;;;13.28;61.10
35888;BME280;21990;42.540;23.496;2023-04-26T12:06:14;92580.34;;;13.43;61.91
35888;BME280;21990;42.540;23.496;2023-04-26T12:08:40;92575.41;;;13.51;56.87
35888;BME280;21990;42.540;23.496;2023-04-26T12:11:05;92569.34;;;13.55;57.50
35888;BME280;21990;42.540;23.496;2023-04-26T12:13:30;92572.13;;;13.62;56.78
35888;BME280;21990;42.540;23.496;2023-04-26T12:15:57;92568.16;;;13.65;55.63
35888;BME280;21990;42.540;23.496;2023-04-26T12:18:28;92572.75;;;13.53;55.94
35888;BME280;21990;42.540;23.496;2023-04-26T12:20:56;92565.41;;;13.50;56.22
35888;BME280;21990;42.540;23.496;2023-04-26T12:23:21;92569.59;;;13.49;54.38
35888;BME280;21990;42.540;23.496;2023-04-26T12:25:51;92565.41;;;13.50;55.69
35888;BME280;21990;42.540;23.496;2023-04-26T12:28:17;92570.84;;;13.56;56.46
35888;BME280;21990;42.540;23.496;2023-04-26T12:30:43;92557.63;;;13.58;53.84
35888;BME280;21990;42.540;23.496;2023-04-26T12:33:08;92566.91;;;13.51;54.03
35888;BME280;21990;42.540;23.496;2023-04-26T12:35:33;92563.38;;;13.43;55.53
35888;BME280;21990;42.540;23.496;2023-04-26T12:37:59;92561.91;;;13.35;54.88
35888;BME280;21990;42.540;23.496;2023-04-26T12:40:28;92556.38;;;13.19;54.16
35888;BME280;21990;42.540;23.496;2023-04-26T12:42:54;92561.84;;;13.17;54.52
35888;BME280;21990;42.540;23.496;2023-04-26T12:45:20;92563.41;;;13.03;55.76
35888;BME280;21990;42.540;23.496;2023-04-26T12:47:46;92565.88;;;12.99;56.12
35888;BME280;21990;42.540;23.496;2023-04-26T12:50:12;92583.81;;;12.94;55.54
35888;BME280;21990;42.540;23.496;2023-04-26T12:52:38;92583.88;;;12.79;56.21
35888;BME280;21990;42.540;23.496;2023-04-26T12:55:05;92577.31;;;12.69;56.55
35888;BME280;21990;42.540;23.496;2023-04-26T12:57:30;92581.63;;;12.70;57.90
35888;BME280;21990;42.540;23.496;2023-04-26T12:59:56;92572.47;;;12.54;57.40